createdAt,value
2023-05-14T00:00:38.979Z,2.00
2023-05-14T00:03:26.611Z,1.90
2023-05-14T00:05:54.317Z,2.00
2023-05-14T00:08:21.963Z,2.20
2023-05-14T00:10:49.646Z,2.00
2023-05-14T00:13:17.330Z,1.90
2023-05-14T00:15:45.394Z,2.10
2023-05-14T00:18:13.325Z,1.90
2023-05-14T00:20:41.008Z,1.90
2023-05-14T00:23:09.262Z,2.10
2023-05-14T00:25:36.920Z,1.80
2023-05-14T00:28:04.908Z,2.20
2023-05-14T00:30:33.670Z,2.10
2023-05-14T00:33:01.487Z,2.20
2023-05-14T00:35:29.252Z,1.90
2023-05-14T00:37:56.883Z,2.00
2023-05-14T00:40:27.055Z,2.20
2023-05-14T00:42:56.207Z,2.10
2023-05-14T00:45:23.834Z,2.10
2023-05-14T00:47:52.210Z,1.80
2023-05-14T00:50:20.126Z,2.10
2023-05-14T00:52:47.911Z,2.10
2023-05-14T00:55:16.602Z,2.20
2023-05-14T00:57:45.057Z,2.10
2023-05-14T01:00:13.236Z,2.00
2023-05-14T01:02:40.927Z,2.20
2023-05-14T01:05:09.875Z,2.00
2023-05-14T01:08:01.314Z,2.30
2023-05-14T01:10:36.725Z,2.00
2023-05-14T01:13:20.780Z,2.20
2023-05-14T01:15:49.478Z,2.10
2023-05-14T01:18:19.410Z,2.20
2023-05-14T01:20:51.451Z,2.30
2023-05-14T01:23:19.176Z,2.20
2023-05-14T01:25:46.866Z,2.10
2023-05-14T01:28:27.212Z,2.20
2023-05-14T01:31:12.006Z,2.20
2023-05-14T01:33:42.651Z,2.10
2023-05-14T01:36:10.926Z,2.20
2023-05-14T01:38:39.603Z,2.20
2023-05-14T01:41:07.481Z,2.10
2023-05-14T01:43:36.143Z,2.20
2023-05-14T01:46:04.864Z,2.00
2023-05-14T01:48:32.721Z,2.30
2023-05-14T01:51:00.463Z,2.10
2023-05-14T01:53:28.279Z,2.20
2023-05-14T01:55:55.951Z,2.20
2023-05-14T01:58:23.661Z,2.40
2023-05-14T02:00:51.288Z,2.00
2023-05-14T02:03:19.930Z,2.30
2023-05-14T02:05:47.632Z,2.20
2023-05-14T02:08:15.772Z,2.20
2023-05-14T02:10:43.383Z,2.10
2023-05-14T02:13:11.061Z,2.10
2023-05-14T02:15:38.762Z,2.00
2023-05-14T02:18:06.520Z,2.20
2023-05-14T02:20:34.250Z,2.30
2023-05-14T02:23:01.888Z,2.20
2023-05-14T02:25:29.570Z,2.10
2023-05-14T02:27:57.223Z,2.30
2023-05-14T02:30:25.288Z,2.30
2023-05-14T02:32:53.415Z,2.30
2023-05-14T02:35:21.865Z,2.20
2023-05-14T02:37:49.505Z,2.30
2023-05-14T02:40:17.281Z,2.30
2023-05-14T02:42:44.910Z,2.20
2023-05-14T02:45:12.554Z,2.30
2023-05-14T02:47:41.169Z,2.10
2023-05-14T02:50:09.521Z,2.60
2023-05-14T02:52:37.209Z,2.40
2023-05-14T02:55:06.172Z,2.10
2023-05-14T02:57:33.873Z,2.10
2023-05-14T03:00:01.825Z,2.50
2023-05-14T03:02:30.261Z,2.30
2023-05-14T03:04:58.522Z,2.10
2023-05-14T03:07:26.115Z,2.40
2023-05-14T03:09:53.746Z,1.90
2023-05-14T03:12:21.771Z,2.40
2023-05-14T03:14:49.647Z,2.30
2023-05-14T03:17:17.286Z,2.40
2023-05-14T03:19:44.919Z,2.40
2023-05-14T03:22:12.681Z,2.20
2023-05-14T03:24:40.829Z,2.20
2023-05-14T03:27:08.753Z,2.50
2023-05-14T03:29:36.390Z,2.30
2023-05-14T03:32:04.747Z,2.40
2023-05-14T03:34:32.695Z,2.30
2023-05-14T03:37:00.344Z,2.30
2023-05-14T03:39:27.975Z,2.20
2023-05-14T03:41:57.095Z,2.10
2023-05-14T03:44:25.845Z,2.20
2023-05-14T03:46:53.612Z,2.50
2023-05-14T03:49:21.508Z,2.30
2023-05-14T03:51:49.170Z,2.20
2023-05-14T03:54:16.839Z,2.00
2023-05-14T03:56:45.954Z,2.40
2023-05-14T03:59:14.345Z,2.30
2023-05-14T04:01:42.078Z,2.10
2023-05-14T04:04:09.831Z,2.10
2023-05-14T04:06:37.848Z,2.30
2023-05-14T04:09:05.484Z,2.20
2023-05-14T04:11:33.147Z,2.40
2023-05-14T04:14:01.032Z,2.20
2023-05-14T04:16:28.788Z,2.20
2023-05-14T04:18:56.766Z,2.40
2023-05-14T04:21:24.477Z,2.20
2023-05-14T04:23:52.144Z,2.10
2023-05-14T04:26:19.751Z,2.20
2023-05-14T04:28:47.361Z,2.20
2023-05-14T04:31:16.197Z,2.30
2023-05-14T04:33:43.995Z,2.40
2023-05-14T04:36:11.667Z,2.30
2023-05-14T04:38:39.822Z,2.20
2023-05-14T04:41:07.430Z,2.40
2023-05-14T04:43:35.487Z,2.20
2023-05-14T04:46:03.286Z,2.20
2023-05-14T04:48:31.486Z,2.10
2023-05-14T04:50:59.250Z,2.00
2023-05-14T04:53:26.922Z,2.20
2023-05-14T04:55:55.118Z,1.90
2023-05-14T04:58:23.972Z,2.20
2023-05-14T05:00:51.724Z,1.90
2023-05-14T05:03:19.509Z,2.10
2023-05-14T05:05:47.170Z,2.20
2023-05-14T05:08:14.871Z,2.10
2023-05-14T05:10:42.493Z,2.00
2023-05-14T05:13:10.171Z,1.90
2023-05-14T05:15:37.885Z,1.90
2023-05-14T05:18:06.233Z,1.80
2023-05-14T05:20:34.162Z,2.00
2023-05-14T05:23:01.814Z,1.90
2023-05-14T05:25:29.503Z,2.00
2023-05-14T05:27:57.148Z,1.80
2023-05-14T05:30:25.073Z,1.90
2023-05-14T05:32:53.213Z,1.90
2023-05-14T05:35:20.914Z,1.90
2023-05-14T05:37:48.627Z,1.70
2023-05-14T05:40:16.932Z,1.70
2023-05-14T05:42:44.686Z,1.70
2023-05-14T05:45:12.345Z,1.60
2023-05-14T05:47:40.082Z,1.80
2023-05-14T05:50:09.633Z,1.60
2023-05-14T05:52:37.701Z,1.80
2023-05-14T05:55:05.960Z,1.70
2023-05-14T05:57:33.566Z,1.70
2023-05-14T06:00:04.731Z,1.80
2023-05-14T06:02:44.155Z,1.70
2023-05-14T06:05:12.819Z,1.70
2023-05-14T06:07:40.556Z,1.70
2023-05-14T06:10:08.600Z,1.50
2023-05-14T06:12:36.492Z,1.60
2023-05-14T06:15:04.645Z,1.70
2023-05-14T06:17:32.298Z,1.70
2023-05-14T06:20:00.261Z,1.60
2023-05-14T06:22:27.926Z,1.70
2023-05-14T06:24:55.673Z,1.60
2023-05-14T06:27:23.295Z,1.50
2023-05-14T06:29:50.961Z,1.30
2023-05-14T06:32:18.674Z,1.40
2023-05-14T06:34:46.606Z,1.50
2023-05-14T06:37:14.235Z,1.60
2023-05-14T06:39:48.189Z,1.60
2023-05-14T06:42:16.662Z,1.40
2023-05-14T06:44:45.051Z,1.50
2023-05-14T06:47:12.712Z,1.20
2023-05-14T06:49:40.322Z,1.30
2023-05-14T06:52:08.232Z,1.60
2023-05-14T06:54:36.105Z,1.50
2023-05-14T06:57:03.943Z,1.40
2023-05-14T06:59:31.624Z,1.40
2023-05-14T07:01:59.679Z,1.50
2023-05-14T07:04:27.430Z,1.40
2023-05-14T07:06:55.057Z,1.30
2023-05-14T07:09:22.706Z,1.50
2023-05-14T07:11:50.378Z,1.50
2023-05-14T07:14:18.002Z,1.30
2023-05-14T07:16:47.044Z,1.20
2023-05-14T07:19:14.883Z,1.50
2023-05-14T07:21:42.504Z,1.20
2023-05-14T07:24:10.150Z,1.40
2023-05-14T07:26:39.084Z,1.30
2023-05-14T07:29:07.126Z,1.30
2023-05-14T07:31:34.860Z,1.30
2023-05-14T07:34:02.532Z,1.30
2023-05-14T07:36:30.894Z,1.20
2023-05-14T07:38:58.549Z,1.30
2023-05-14T07:41:26.245Z,1.20
2023-05-14T07:43:53.880Z,1.30
2023-05-14T07:46:21.513Z,1.10
2023-05-14T07:48:49.151Z,1.20
2023-05-14T07:51:16.828Z,1.20
2023-05-14T07:53:44.440Z,1.20
2023-05-14T07:56:12.049Z,1.30
2023-05-14T07:58:39.732Z,1.20
2023-05-14T08:01:09.202Z,1.20
2023-05-14T08:03:37.074Z,1.10
2023-05-14T08:06:05.374Z,1.00
2023-05-14T08:08:33.016Z,1.30
2023-05-14T08:11:02.286Z,1.20
2023-05-14T08:13:30.238Z,1.30
2023-05-14T08:15:58.000Z,1.20
2023-05-14T08:18:25.883Z,1.20
2023-05-14T08:20:53.506Z,1.10
2023-05-14T08:23:21.179Z,1.10
2023-05-14T08:25:48.835Z,1.20
2023-05-14T08:28:16.538Z,1.10
2023-05-14T08:30:44.259Z,1.20
2023-05-14T08:33:12.034Z,0.90
2023-05-14T08:35:39.654Z,1.10
2023-05-14T08:38:07.308Z,1.20
2023-05-14T08:40:35.084Z,1.20
2023-05-14T08:43:02.784Z,1.30
2023-05-14T08:45:34.399Z,0.90
2023-05-14T08:48:08.593Z,1.10
2023-05-14T08:50:36.468Z,1.10
2023-05-14T08:53:04.593Z,1.30
2023-05-14T08:55:34.017Z,1.10
2023-05-14T08:58:01.758Z,1.10
2023-05-14T09:00:29.589Z,1.10
2023-05-14T09:02:58.968Z,1.20
2023-05-14T09:05:27.035Z,1.00
2023-05-14T09:07:54.704Z,1.00
2023-05-14T09:10:22.828Z,1.00
2023-05-14T09:12:51.655Z,1.00
2023-05-14T09:15:19.365Z,1.20
2023-05-14T09:17:48.609Z,1.00
2023-05-14T09:20:16.752Z,1.10
2023-05-14T09:22:44.384Z,1.00
2023-05-14T09:25:12.850Z,1.10
2023-05-14T09:27:40.468Z,1.20
2023-05-14T09:30:10.988Z,1.10
2023-05-14T09:32:47.220Z,1.10
2023-05-14T09:35:24.553Z,1.00
2023-05-14T09:37:54.189Z,0.90
2023-05-14T09:40:24.423Z,1.00
2023-05-14T09:42:52.985Z,1.00
2023-05-14T09:45:20.796Z,1.10
2023-05-14T09:47:48.497Z,0.90
2023-05-14T09:50:16.189Z,1.10
2023-05-14T09:52:43.849Z,1.00
2023-05-14T09:55:11.571Z,1.00
2023-05-14T09:57:39.360Z,1.10
2023-05-14T10:00:08.776Z,0.90
2023-05-14T10:02:38.304Z,0.90
2023-05-14T10:05:07.692Z,1.00
2023-05-14T10:07:39.979Z,1.00
2023-05-14T10:10:11.502Z,0.70
2023-05-14T10:12:40.861Z,0.90
2023-05-14T10:15:17.696Z,0.80
2023-05-14T10:17:57.110Z,0.80
2023-05-14T10:20:27.079Z,0.80
2023-05-14T10:22:56.469Z,1.00
2023-05-14T10:25:24.681Z,0.90
2023-05-14T10:27:53.219Z,0.90
2023-05-14T10:30:25.309Z,0.90
2023-05-14T10:33:11.584Z,0.70
2023-05-14T10:36:00.749Z,0.90
2023-05-14T10:38:30.733Z,0.80
2023-05-14T10:41:04.182Z,1.00
2023-05-14T10:43:37.434Z,1.00
2023-05-14T10:46:06.229Z,0.90
2023-05-14T10:48:34.658Z,0.70
2023-05-14T10:51:02.923Z,0.90
2023-05-14T10:53:32.519Z,0.80
2023-05-14T10:56:11.372Z,0.80
2023-05-14T10:58:41.751Z,0.90
2023-05-14T11:01:11.949Z,1.00
2023-05-14T11:03:47.078Z,0.80
2023-05-14T11:06:16.085Z,0.80
2023-05-14T11:08:44.754Z,1.00
2023-05-14T11:11:12.562Z,0.90
2023-05-14T11:13:41.558Z,0.80
2023-05-14T11:16:21.840Z,0.90
2023-05-14T11:19:03.270Z,0.90
2023-05-14T11:21:32.495Z,0.80
2023-05-14T11:24:01.321Z,0.70
2023-05-14T11:26:29.100Z,0.80
2023-05-14T11:28:57.022Z,0.80
2023-05-14T11:31:25.454Z,0.90
2023-05-14T11:33:53.673Z,0.80
2023-05-14T11:36:22.034Z,0.80
2023-05-14T11:38:51.310Z,0.80
2023-05-14T11:41:21.367Z,0.80
2023-05-14T11:43:49.213Z,0.70
2023-05-14T11:46:18.714Z,0.80
2023-05-14T11:48:46.797Z,0.80
2023-05-14T11:51:14.481Z,0.60
2023-05-14T11:53:42.184Z,0.90
2023-05-14T11:56:10.161Z,0.80
2023-05-14T11:58:37.958Z,0.90
2023-05-14T12:01:05.651Z,0.90
2023-05-14T12:03:35.065Z,0.90
2023-05-14T12:06:08.004Z,0.90
2023-05-14T12:08:37.579Z,1.00
2023-05-14T12:11:05.649Z,0.80
2023-05-14T12:13:33.322Z,0.90
2023-05-14T12:16:02.743Z,0.80
2023-05-14T12:18:32.410Z,0.60
2023-05-14T12:21:07.718Z,0.80
2023-05-14T12:23:35.481Z,0.90
2023-05-14T12:26:07.328Z,0.90
2023-05-14T12:28:38.500Z,0.90
2023-05-14T12:31:06.959Z,0.70
2023-05-14T12:33:34.820Z,0.80
2023-05-14T12:36:13.557Z,0.70
2023-05-14T12:38:50.201Z,0.90
2023-05-14T12:41:18.145Z,0.60
2023-05-14T12:43:49.307Z,1.20
2023-05-14T12:46:16.986Z,0.40
2023-05-14T12:48:44.683Z,0.40
2023-05-14T12:51:12.483Z,0.40
2023-05-14T12:53:40.578Z,0.30
2023-05-14T12:56:08.594Z,0.30
2023-05-14T12:58:36.601Z,0.30
2023-05-14T13:01:05.225Z,0.20
2023-05-14T13:03:32.987Z,0.20
2023-05-14T13:06:01.336Z,0.20
2023-05-14T13:08:29.015Z,0.20
2023-05-14T13:10:56.869Z,0.20
2023-05-14T13:13:24.579Z,0.20
2023-05-14T13:15:53.145Z,0.10
2023-05-14T13:18:20.801Z,0.20
2023-05-14T13:20:48.512Z,0.10
2023-05-14T13:23:16.155Z,0.20
2023-05-14T13:25:43.881Z,0.10
2023-05-14T13:28:11.502Z,0.20
2023-05-14T13:30:39.158Z,0.20
2023-05-14T13:33:06.883Z,0.10
2023-05-14T13:35:34.661Z,0.20
2023-05-14T13:38:02.911Z,0.20
2023-05-14T13:40:30.528Z,0.20
2023-05-14T13:42:58.167Z,0.20
2023-05-14T13:45:25.966Z,0.30
2023-05-14T13:47:53.886Z,0.30
2023-05-14T13:50:22.076Z,0.30
2023-05-14T13:52:49.714Z,0.30
2023-05-14T13:55:17.457Z,0.20
2023-05-14T13:57:45.355Z,0.20
2023-05-14T14:00:14.888Z,0.20
2023-05-14T14:02:42.530Z,0.20
2023-05-14T14:05:10.354Z,0.20
2023-05-14T14:07:39.560Z,0.20
2023-05-14T14:10:10.602Z,0.20
2023-05-14T14:12:38.309Z,0.20
2023-05-14T14:15:06.796Z,0.30
2023-05-14T14:17:34.730Z,0.30
2023-05-14T14:20:05.800Z,0.30
2023-05-14T14:22:33.719Z,0.30
2023-05-14T14:25:02.029Z,0.30
2023-05-14T14:27:34.806Z,0.30
2023-05-14T14:30:02.874Z,0.30
2023-05-14T14:32:30.780Z,0.20
2023-05-14T14:34:58.467Z,0.20
2023-05-14T14:37:26.144Z,0.10
2023-05-14T14:39:53.753Z,0.20
2023-05-14T14:42:21.412Z,0.20
2023-05-14T14:44:49.038Z,0.30
2023-05-14T14:47:16.765Z,0.20
2023-05-14T14:49:44.357Z,0.20
2023-05-14T14:52:11.987Z,0.20
2023-05-14T14:54:39.586Z,0.20
2023-05-14T14:57:07.203Z,0.20
2023-05-14T14:59:35.596Z,0.30
2023-05-14T15:02:03.685Z,0.20
2023-05-14T15:04:34.050Z,0.20
2023-05-14T15:07:02.262Z,0.30
2023-05-14T15:09:30.888Z,0.20
2023-05-14T15:11:58.661Z,0.20
2023-05-14T15:14:26.700Z,0.20
2023-05-14T15:16:54.386Z,0.20
2023-05-14T15:19:22.022Z,0.20
2023-05-14T15:21:50.041Z,0.20
2023-05-14T15:24:17.709Z,0.20
2023-05-14T15:26:45.804Z,0.20
2023-05-14T15:29:13.453Z,0.20
2023-05-14T15:31:41.231Z,0.20
2023-05-14T15:34:09.075Z,0.20
2023-05-14T15:36:36.637Z,0.20
2023-05-14T15:39:04.212Z,0.20
2023-05-14T15:41:31.836Z,0.20
2023-05-14T15:43:59.830Z,0.20
2023-05-14T15:46:27.548Z,0.10
2023-05-14T15:48:55.359Z,0.20
2023-05-14T15:51:22.944Z,0.20
2023-05-14T15:53:53.768Z,0.20
2023-05-14T15:56:22.887Z,0.20
2023-05-14T15:58:50.826Z,0.30
2023-05-14T16:01:19.540Z,0.20
2023-05-14T16:03:47.351Z,0.30
2023-05-14T16:06:15.077Z,0.30
2023-05-14T16:08:42.690Z,0.30
2023-05-14T16:11:10.379Z,0.20
2023-05-14T16:13:39.892Z,0.30
2023-05-14T16:16:08.082Z,0.30
2023-05-14T16:18:35.791Z,0.40
2023-05-14T16:21:03.545Z,0.30
2023-05-14T16:23:31.268Z,0.40
2023-05-14T16:25:58.969Z,0.40
2023-05-14T16:28:27.000Z,0.50
2023-05-14T16:30:54.656Z,0.60
2023-05-14T16:33:22.259Z,0.50
2023-05-14T16:35:51.147Z,0.40
2023-05-14T16:38:21.502Z,0.50
2023-05-14T16:40:49.106Z,0.30
2023-05-14T16:43:17.046Z,0.40
2023-05-14T16:45:44.728Z,0.50
2023-05-14T16:48:12.532Z,0.30
2023-05-14T16:50:40.183Z,0.40
2023-05-14T16:53:07.824Z,0.40
2023-05-14T16:55:35.570Z,0.50
2023-05-14T16:58:03.180Z,0.50
2023-05-14T17:00:30.794Z,0.50
2023-05-14T17:02:58.435Z,0.50
2023-05-14T17:05:26.234Z,0.60
2023-05-14T17:07:54.059Z,0.50
2023-05-14T17:10:21.784Z,0.60
2023-05-14T17:12:49.377Z,0.50
2023-05-14T17:15:19.970Z,0.60
2023-05-14T17:17:47.632Z,0.60
2023-05-14T17:20:16.915Z,0.60
2023-05-14T17:22:44.914Z,0.60
2023-05-14T17:25:12.678Z,0.60
2023-05-14T17:27:40.354Z,0.60
2023-05-14T17:30:08.407Z,0.60
2023-05-14T17:32:36.205Z,0.70
2023-05-14T17:35:05.238Z,0.60
2023-05-14T17:37:32.994Z,0.70
2023-05-14T17:40:00.666Z,0.70
2023-05-14T17:42:28.334Z,0.70
2023-05-14T17:44:55.992Z,0.70
2023-05-14T17:47:23.662Z,0.80
2023-05-14T17:49:51.340Z,0.80
2023-05-14T17:52:19.201Z,0.80
2023-05-14T17:54:46.881Z,0.80
2023-05-14T17:57:14.805Z,0.90
2023-05-14T17:59:42.428Z,0.80
2023-05-14T18:02:10.100Z,0.90
2023-05-14T18:04:37.804Z,1.00
2023-05-14T18:07:05.733Z,1.00
2023-05-14T18:09:33.397Z,0.90
2023-05-14T18:12:01.001Z,1.00
2023-05-14T18:14:28.614Z,1.00
2023-05-14T18:16:56.407Z,1.10
2023-05-14T18:19:24.764Z,1.10
2023-05-14T18:21:55.182Z,0.90
2023-05-14T18:24:22.938Z,1.10
2023-05-14T18:26:50.791Z,1.10
2023-05-14T18:29:18.392Z,1.10
2023-05-14T18:31:46.009Z,1.00
2023-05-14T18:34:13.617Z,1.10
2023-05-14T18:36:41.451Z,1.10
2023-05-14T18:39:09.599Z,1.10
2023-05-14T18:41:37.279Z,1.20
2023-05-14T18:44:04.898Z,1.30
2023-05-14T18:46:32.695Z,1.10
2023-05-14T18:49:00.410Z,1.30
2023-05-14T18:51:28.088Z,1.10
2023-05-14T18:53:55.749Z,1.20
2023-05-14T18:56:24.471Z,1.30
2023-05-14T18:58:53.395Z,1.30
2023-05-14T19:01:23.121Z,1.20
2023-05-14T19:03:52.915Z,1.40
2023-05-14T19:06:20.754Z,1.20
2023-05-14T19:08:48.437Z,1.40
2023-05-14T19:11:17.938Z,1.30
2023-05-14T19:13:49.431Z,1.30
2023-05-14T19:16:17.110Z,1.40
2023-05-14T19:18:44.941Z,1.30
2023-05-14T19:21:14.729Z,1.20
2023-05-14T19:23:42.427Z,1.50
2023-05-14T19:26:10.462Z,1.30
2023-05-14T19:28:38.755Z,1.20
2023-05-14T19:31:06.472Z,1.30
2023-05-14T19:33:34.246Z,1.40
2023-05-14T19:36:01.915Z,1.50
2023-05-14T19:38:30.327Z,1.40
2023-05-14T19:40:58.014Z,1.40
2023-05-14T19:43:26.088Z,1.50
2023-05-14T19:45:53.919Z,1.50
2023-05-14T19:48:21.587Z,1.40
2023-05-14T19:50:49.267Z,1.60
2023-05-14T19:53:16.853Z,1.30
2023-05-14T19:55:44.611Z,1.50
2023-05-14T19:58:12.253Z,1.50
2023-05-14T20:00:39.917Z,1.60
2023-05-14T20:03:07.641Z,1.70
2023-05-14T20:05:36.156Z,1.60
2023-05-14T20:08:06.532Z,1.60
2023-05-14T20:10:34.191Z,1.60
2023-05-14T20:13:01.810Z,1.60
2023-05-14T20:15:29.587Z,1.60
2023-05-14T20:17:57.542Z,1.50
2023-05-14T20:20:25.599Z,1.60
2023-05-14T20:22:53.510Z,1.40
2023-05-14T20:25:21.760Z,1.60
2023-05-14T20:27:49.692Z,1.50
2023-05-14T20:30:17.353Z,1.60
2023-05-14T20:32:45.245Z,1.70
2023-05-14T20:35:13.206Z,1.60
2023-05-14T20:37:41.203Z,1.70
2023-05-14T20:40:12.589Z,1.60
2023-05-14T20:42:40.576Z,1.40
2023-05-14T20:45:08.853Z,1.50
2023-05-14T20:47:36.572Z,1.60
2023-05-14T20:50:04.698Z,1.40
2023-05-14T20:52:32.406Z,1.50
2023-05-14T20:55:01.844Z,1.50
2023-05-14T20:57:30.154Z,1.50
2023-05-14T20:59:57.777Z,1.70
2023-05-14T21:02:25.521Z,1.50
2023-05-14T21:04:53.403Z,1.60
2023-05-14T21:07:21.106Z,1.60
2023-05-14T21:09:52.178Z,1.70
2023-05-14T21:12:19.819Z,1.50
2023-05-14T21:14:47.561Z,1.50
2023-05-14T21:17:15.274Z,1.80
2023-05-14T21:19:42.945Z,1.60
2023-05-14T21:22:10.520Z,1.70
2023-05-14T21:24:38.142Z,1.60
2023-05-14T21:27:05.898Z,1.70
2023-05-14T21:29:33.541Z,1.70
2023-05-14T21:32:01.223Z,1.60
2023-05-14T21:34:31.264Z,1.60
2023-05-14T21:36:59.752Z,1.50
2023-05-14T21:39:27.346Z,1.60
2023-05-14T21:41:54.931Z,1.70
2023-05-14T21:44:22.696Z,1.70
2023-05-14T21:46:50.575Z,1.60
2023-05-14T21:49:18.213Z,1.70
2023-05-14T21:51:45.841Z,1.60
2023-05-14T21:54:13.999Z,1.60
2023-05-14T21:56:41.651Z,1.70
2023-05-14T21:59:09.345Z,1.60
2023-05-14T22:01:46.058Z,1.70
2023-05-14T22:04:24.810Z,1.70
2023-05-14T22:06:52.445Z,1.70
2023-05-14T22:09:20.767Z,1.80
2023-05-14T22:11:48.356Z,1.80
2023-05-14T22:14:16.003Z,1.70
2023-05-14T22:16:43.714Z,1.70
2023-05-14T22:19:11.870Z,1.80
2023-05-14T22:21:39.615Z,1.70
2023-05-14T22:24:07.387Z,1.70
2023-05-14T22:26:35.388Z,1.80
2023-05-14T22:29:03.021Z,1.70
2023-05-14T22:31:30.790Z,1.50
2023-05-14T22:33:58.382Z,1.90
2023-05-14T22:36:25.993Z,1.70
2023-05-14T22:38:53.642Z,1.70
2023-05-14T22:41:22.064Z,1.70
2023-05-14T22:43:50.827Z,1.80
2023-05-14T22:46:18.578Z,1.80
2023-05-14T22:48:48.911Z,1.60
2023-05-14T22:51:16.612Z,1.70
2023-05-14T22:53:44.254Z,1.70
2023-05-14T22:56:11.878Z,1.80
2023-05-14T22:58:39.482Z,1.80
2023-05-14T23:01:07.148Z,1.80
2023-05-14T23:03:34.798Z,1.80
2023-05-14T23:06:02.471Z,1.80
2023-05-14T23:08:30.189Z,1.70
2023-05-14T23:10:57.836Z,1.90
2023-05-14T23:13:25.570Z,1.80
2023-05-14T23:15:53.402Z,1.80
2023-05-14T23:18:21.308Z,2.00
2023-05-14T23:20:49.898Z,1.70
2023-05-14T23:23:17.599Z,1.70
2023-05-14T23:25:45.721Z,1.70
2023-05-14T23:28:13.432Z,1.80
2023-05-14T23:30:41.337Z,1.90
2023-05-14T23:33:08.980Z,1.70
2023-05-14T23:35:40.560Z,1.70
2023-05-14T23:38:09.385Z,1.80
2023-05-14T23:40:37.165Z,1.90
2023-05-14T23:43:04.771Z,2.00
2023-05-14T23:45:32.850Z,1.70
2023-05-14T23:48:01.584Z,1.90
2023-05-14T23:50:29.456Z,1.60
2023-05-14T23:52:57.208Z,1.80
2023-05-14T23:55:25.087Z,1.80
2023-05-14T23:57:53.074Z,1.70
